Time;durP1;ratioP1;P1;durP2;ratioP2;P2;SDS_P1;SDS_P2;PMS_P1;PMS_P2;Temp;Humidity;BMP_temperature;BMP_pressure;BME280_temperature;BME280_humidity;BME280_pressure;Samples;Min_cycle;Max_cycle;Signal;HPM_P1;HPM_P2
2024/02/10 00:00:16;;;;;;;14.50;10.30;;;9.20;99.90;;;8.67;100.00;95437.38;5068218;28;20456;-78
2024/02/10 00:02:45;;;;;;;19.83;9.90;;;9.10;99.90;;;8.87;100.00;95436.63;5067144;28;20460;-75
2024/02/10 00:05:14;;;;;;;14.93;9.20;;;9.30;99.90;;;8.81;100.00;95442.25;5066284;28;20881;-76
2024/02/10 00:07:45;;;;;;;14.80;8.83;;;9.20;99.90;;;8.69;100.00;95440.63;5063609;28;20448;-74
2024/02/10 00:10:13;;;;;;;15.90;9.10;;;9.20;99.90;;;8.61;100.00;95449.22;5062586;28;20475;-74
2024/02/10 00:12:41;;;;;;;12.40;9.83;;;9.10;99.90;;;8.63;100.00;95444.38;5063865;28;20470;-76
2024/02/10 00:15:10;;;;;;;15.47;9.20;;;9.10;99.90;;;8.64;100.00;95443.31;5067027;28;20445;-74
2024/02/10 00:17:38;;;;;;;14.57;9.37;;;9.10;99.90;;;8.68;100.00;95444.38;5066142;28;20447;-75
2024/02/10 00:20:13;;;;;;;15.60;9.50;;;9.10;99.90;;;8.61;100.00;95433.09;5060129;28;20457;-77
2024/02/10 00:22:40;;;;;;;10.53;8.03;;;9.10;99.90;;;8.88;100.00;95421.28;5060368;28;20995;-76
2024/02/10 00:25:09;;;;;;;10.60;8.33;;;9.30;99.90;;;8.91;100.00;95420.75;5064220;28;20481;-76
2024/02/10 00:27:37;;;;;;;15.90;9.83;;;9.30;99.90;;;8.88;100.00;95416.69;5057443;28;20501;-78
2024/02/10 00:30:06;;;;;;;11.50;8.63;;;9.30;99.90;;;8.58;100.00;95395.94;5067854;28;20452;-75
2024/02/10 00:32:37;;;;;;;12.37;8.40;;;9.20;99.90;;;8.67;100.00;95409.69;5070811;28;20915;-77
2024/02/10 00:35:07;;;;;;;13.77;9.07;;;9.10;99.90;;;8.58;100.00;95414.78;5062831;28;20971;-75
2024/02/10 00:37:35;;;;;;;17.00;9.13;;;9.10;99.90;;;8.56;100.00;95412.34;5067561;28;20466;-75
2024/02/10 00:40:04;;;;;;;26.30;16.97;;;9.00;99.90;;;8.59;100.00;95413.72;5068238;28;20460;-76
2024/02/10 00:42:31;;;;;;;15.90;8.80;;;9.00;99.90;;;8.50;100.00;95416.91;5068195;28;20547;-75
2024/02/10 00:45:00;;;;;;;16.83;9.70;;;9.00;99.90;;;8.49;100.00;95420.66;5044548;28;20502;-74
2024/02/10 00:47:28;;;;;;;15.10;9.30;;;9.00;99.90;;;8.42;100.00;95424.66;5073454;28;21276;-73
2024/02/10 00:50:01;;;;;;;14.57;8.87;;;8.90;99.90;;;8.57;100.00;95421.22;5067478;28;20447;-76
2024/02/10 00:52:30;;;;;;;13.53;8.73;;;9.00;99.90;;;8.56;100.00;95419.59;5043590;28;20482;-75
2024/02/10 00:54:57;;;;;;;14.33;8.60;;;9.00;99.90;;;8.59;100.00;95419.09;5049116;28;20460;-76
2024/02/10 00:57:28;;;;;;;12.50;8.70;;;9.00;99.90;;;8.60;100.00;95420.72;5059718;28;20465;-74
2024/02/10 00:59:56;;;;;;;14.40;8.80;;;9.00;99.90;;;8.72;100.00;95397.03;5064752;28;20447;-74
2024/02/10 01:02:24;;;;;;;13.83;8.40;;;9.10;99.90;;;8.71;100.00;95390.00;5061400;28;20453;-73
2024/02/10 01:04:54;;;;;;;10.77;7.87;;;9.10;99.90;;;8.63;100.00;95382.47;5065384;28;20490;-73
2024/02/10 01:07:24;;;;;;;10.67;7.20;;;9.10;99.90;;;8.66;100.00;95395.41;5059249;28;20444;-76
2024/02/10 01:09:53;;;;;;;9.33;6.90;;;9.10;99.90;;;8.61;100.00;95381.94;5062906;28;20538;-76
2024/02/10 01:12:20;;;;;;;9.00;6.17;;;9.10;99.90;;;8.55;100.00;95386.50;5065984;28;20534;-75
2024/02/10 01:14:47;;;;;;;9.77;6.33;;;9.10;99.90;;;8.65;100.00;95383.03;5066476;28;20575;-77
2024/02/10 01:17:15;;;;;;;9.23;5.83;;;9.10;99.90;;;8.61;100.00;95380.06;5064688;28;20440;-75
2024/02/10 01:19:49;;;;;;;8.27;5.33;;;9.10;99.90;;;8.67;100.00;95380.88;5064622;28;20851;-77
2024/02/10 01:22:16;;;;;;;12.60;5.23;;;9.10;99.90;;;8.69;100.00;95384.09;5059526;28;20468;-76
2024/02/10 01:24:45;;;;;;;9.83;6.03;;;9.20;99.90;;;8.59;100.00;95376.81;5067249;28;20571;-75
2024/02/10 01:27:16;;;;;;;10.60;6.70;;;9.20;99.90;;;8.50;100.00;95378.44;5041871;28;20973;-73
2024/02/10 01:29:46;;;;;;;12.50;6.30;;;9.10;99.90;;;8.54;100.00;95376.81;5046812;28;20465;-74
2024/02/10 01:32:19;;;;;;;11.50;6.00;;;9.10;99.90;;;8.38;100.00;95375.94;5063967;28;20471;-76
2024/02/10 01:34:47;;;;;;;14.97;6.37;;;9.00;99.90;;;8.36;100.00;95372.72;5065279;28;21751;-76
2024/02/10 01:37:17;;;;;;;9.70;5.50;;;8.90;99.90;;;8.47;100.00;95385.13;5063932;28;20453;-75
2024/02/10 01:39:44;;;;;;;5.10;4.60;;;9.00;99.90;;;8.53;100.00;95382.47;5066645;28;20992;-78
2024/02/10 01:42:17;;;;;;;8.93;5.30;;;9.00;99.90;;;8.51;100.00;95363.91;5065248;28;20492;-77
2024/02/10 01:44:45;;;;;;;7.77;5.03;;;9.00;99.90;;;8.52;100.00;95360.13;5064410;28;20473;-76
2024/02/10 01:47:14;;;;;;;7.63;5.30;;;9.00;99.90;;;8.54;100.00;95365.25;5066510;28;20449;-75
2024/02/10 01:49:42;;;;;;;11.60;6.70;;;9.00;99.90;;;8.18;100.00;95339.88;5065769;28;20448;-75
2024/02/10 01:52:12;;;;;;;9.47;5.83;;;8.90;99.90;;;8.32;100.00;95356.28;5066156;28;20457;-77
2024/02/10 01:54:43;;;;;;;8.97;6.73;;;8.90;99.90;;;8.36;100.00;95362.78;5044886;28;20456;-74
2024/02/10 01:57:13;;;;;;;9.00;5.63;;;8.80;99.90;;;8.31;100.00;95359.25;5060877;28;20445;-76
2024/02/10 01:59:42;;;;;;;13.50;6.17;;;8.90;99.90;;;8.28;100.00;95360.59;5062613;28;20497;-74
2024/02/10 02:02:14;;;;;;;11.63;6.87;;;8.80;99.90;;;8.23;100.00;95352.53;5056963;28;20480;-75
2024/02/10 02:04:43;;;;;;;10.23;7.07;;;8.80;99.90;;;8.16;100.00;95344.72;5062554;28;20569;-77
2024/02/10 02:07:10;;;;;;;10.50;7.07;;;8.70;99.90;;;8.15;100.00;95351.16;5066883;28;20894;-76
2024/02/10 02:09:39;;;;;;;11.77;8.30;;;8.70;99.90;;;8.07;100.00;95344.41;5063801;28;20908;-74
2024/02/10 02:12:09;;;;;;;11.20;7.17;;;8.70;99.90;;;8.02;100.00;95347.06;5048231;28;20465;-74
2024/02/10 02:14:38;;;;;;;14.13;7.10;;;8.60;99.90;;;8.12;100.00;95353.56;5066068;28;20451;-77
2024/02/10 02:17:09;;;;;;;11.90;8.00;;;8.60;99.90;;;7.61;100.00;95294.00;5048355;28;20457;-76
2024/02/10 02:19:40;;;;;;;10.63;7.60;;;8.50;99.90;;;7.83;100.00;95348.63;5065912;28;20550;-74
2024/02/10 02:22:09;;;;;;;13.03;7.90;;;8.40;99.90;;;7.84;100.00;95353.75;5044600;28;20457;-75
2024/02/10 02:24:38;;;;;;;18.50;8.40;;;8.40;99.90;;;7.78;100.00;95346.72;5065456;28;20572;-74
2024/02/10 02:27:08;;;;;;;12.13;7.50;;;8.30;99.90;;;7.84;100.00;95345.69;5063700;28;20452;-76
2024/02/10 02:29:36;;;;;;;13.33;8.30;;;8.30;99.90;;;8.04;100.00;95344.13;5064348;28;20456;-76
2024/02/10 02:32:04;;;;;;;15.23;8.43;;;8.40;99.90;;;7.96;100.00;95350.00;5068070;28;20508;-78
2024/02/10 02:34:33;;;;;;;13.93;7.30;;;8.40;99.90;;;7.84;100.00;95343.00;5063410;28;20452;-76
2024/02/10 02:37:00;;;;;;;11.73;9.27;;;8.30;99.90;;;7.75;100.00;95347.25;5062507;28;20451;-74
2024/02/10 02:39:27;;;;;;;12.27;8.70;;;8.20;99.90;;;7.88;100.00;95345.94;5041650;28;20648;-75
2024/02/10 02:41:59;;;;;;;19.93;9.10;;;8.30;99.90;;;7.73;100.00;95338.66;5043460;28;20853;-74
2024/02/10 02:44:27;;;;;;;12.90;8.23;;;8.20;99.90;;;7.82;100.00;95334.41;5058722;28;20552;-75
2024/02/10 02:46:56;;;;;;;11.80;8.60;;;8.20;99.90;;;7.82;100.00;95331.72;5046159;28;20505;-77
2024/02/10 02:49:24;;;;;;;11.07;8.90;;;8.20;99.90;;;7.76;100.00;95338.13;5059476;28;20461;-72
2024/02/10 02:51:51;;;;;;;11.43;9.00;;;8.20;99.90;;;7.75;100.00;95323.88;5068955;28;20470;-76
2024/02/10 02:54:19;;;;;;;14.10;8.80;;;8.20;99.90;;;7.60;100.00;95319.25;5061260;28;20921;-75
2024/02/10 02:56:51;;;;;;;13.03;9.13;;;8.10;99.90;;;7.52;100.00;95327.84;5061395;28;20514;-77
2024/02/10 02:59:20;;;;;;;17.87;10.03;;;8.00;99.90;;;7.58;100.00;95329.47;5035659;28;20455;-76
2024/02/10 03:01:50;;;;;;;16.50;9.10;;;8.00;99.90;;;7.47;100.00;95325.94;5045428;28;20453;-75
2024/02/10 03:04:18;;;;;;;10.60;8.20;;;7.90;99.90;;;7.39;100.00;95325.63;5058628;28;20520;-76
2024/02/10 03:06:46;;;;;;;12.57;8.33;;;7.90;99.90;;;7.31;100.00;95326.91;5066740;28;20460;-78
2024/02/10 03:09:13;;;;;;;12.43;8.80;;;7.80;99.90;;;7.25;100.00;95327.94;5057095;28;20471;-74
2024/02/10 03:11:41;;;;;;;16.97;9.97;;;7.70;99.90;;;7.13;100.00;95320.91;5046794;28;20451;-77
2024/02/10 03:14:08;;;;;;;16.53;8.87;;;7.60;99.90;;;7.05;100.00;95332.94;5042790;28;20448;-75
2024/02/10 03:16:38;;;;;;;11.77;8.57;;;7.60;99.90;;;6.94;100.00;95333.94;5066153;28;20453;-74
2024/02/10 03:19:06;;;;;;;14.40;9.47;;;7.50;99.90;;;6.99;100.00;95327.81;5063778;28;20973;-77
2024/02/10 03:21:35;;;;;;;18.00;9.60;;;7.50;99.90;;;7.09;100.00;95315.25;5062086;28;20459;-76
2024/02/10 03:24:03;;;;;;;8.70;7.83;;;7.60;99.90;;;7.16;100.00;95319.56;5055400;28;20503;-77
2024/02/10 03:26:31;;;;;;;12.70;8.87;;;7.60;99.90;;;7.04;100.00;95323.25;5059471;28;20464;-76
2024/02/10 03:29:03;;;;;;;12.30;9.10;;;7.60;99.90;;;6.75;100.00;95312.88;5065869;28;20445;-75
2024/02/10 03:31:30;;;;;;;16.57;8.63;;;7.40;99.90;;;6.57;100.00;95313.25;5042678;28;20532;-75
2024/02/10 03:33:59;;;;;;;12.37;8.90;;;7.30;99.90;;;6.61;100.00;95330.47;5062575;28;21059;-74
2024/02/10 03:36:26;;;;;;;15.23;8.40;;;7.10;99.90;;;6.75;100.00;95323.63;5060331;28;20689;-75
2024/02/10 03:38:54;;;;;;;12.77;8.70;;;7.20;99.90;;;6.68;100.00;95293.50;5059147;28;20453;-76
2024/02/10 03:41:22;;;;;;;15.47;8.80;;;7.30;99.90;;;6.69;100.00;95318.47;5060603;28;21586;-74
2024/02/10 03:43:51;;;;;;;10.30;7.87;;;7.20;99.90;;;6.56;100.00;95308.97;5060738;28;20523;-76
2024/02/10 03:46:21;;;;;;;20.50;8.80;;;7.10;99.90;;;6.50;100.00;95330.38;5050426;28;20476;-77
2024/02/10 03:48:50;;;;;;;15.93;8.80;;;7.00;99.90;;;6.29;100.00;95331.25;5050585;28;20444;-77
2024/02/10 03:51:18;;;;;;;15.17;8.57;;;6.90;99.90;;;6.31;100.00;95315.75;5064867;28;20456;-77
2024/02/10 03:53:46;;;;;;;15.77;10.03;;;6.80;99.90;;;6.24;100.00;95315.94;5058612;28;20491;-71
2024/02/10 03:56:13;;;;;;;14.60;9.87;;;6.80;99.90;;;6.15;100.00;95318.28;5050489;28;20456;-76
2024/02/10 03:58:43;;;;;;;21.70;10.83;;;6.70;99.90;;;6.16;100.00;95330.63;5043095;28;20961;-77
2024/02/10 04:01:14;;;;;;;13.37;9.43;;;6.70;99.90;;;6.08;100.00;95309.63;5049952;28;20467;-73
2024/02/10 04:03:42;;;;;;;14.30;9.40;;;6.70;99.90;;;6.04;100.00;95322.72;5056500;28;20469;-74
2024/02/10 04:06:10;;;;;;;16.20;10.20;;;6.60;99.90;;;6.08;100.00;95323.03;5042569;28;20640;-78
2024/02/10 04:08:38;;;;;;;13.63;10.17;;;6.70;99.90;;;6.11;100.00;95324.41;5070400;28;20552;-72
2024/02/10 04:11:07;;;;;;;14.33;10.00;;;6.70;99.90;;;6.11;100.00;95333.22;5064293;28;20441;-75
2024/02/10 04:13:34;;;;;;;13.50;9.53;;;6.70;99.90;;;6.18;100.00;95328.50;5049851;28;20949;-74
2024/02/10 04:16:02;;;;;;;11.70;10.03;;;6.70;99.90;;;5.91;100.00;95278.34;5046902;28;20475;-76
2024/02/10 04:18:29;;;;;;;14.73;9.80;;;6.80;99.90;;;6.26;100.00;95332.59;5067020;28;20926;-74
2024/02/10 04:20:57;;;;;;;14.63;10.80;;;6.80;99.90;;;6.27;100.00;95330.69;5064215;28;22029;-74
2024/02/10 04:23:25;;;;;;;15.83;10.07;;;6.80;99.90;;;6.28;100.00;95332.31;5062783;28;21004;-76
2024/02/10 04:25:54;;;;;;;31.43;10.80;;;6.90;99.90;;;6.30;100.00;95320.28;5043774;28;20473;-73
2024/02/10 04:28:22;;;;;;;23.83;10.73;;;6.90;99.90;;;6.34;100.00;95316.03;5048025;28;20453;-75
2024/02/10 04:30:51;;;;;;;27.87;10.60;;;6.90;99.90;;;6.38;100.00;95324.38;5044323;28;20441;-77
2024/02/10 04:33:18;;;;;;;11.90;9.53;;;6.90;99.90;;;6.43;100.00;95323.63;5068862;28;20455;-76
2024/02/10 04:35:45;;;;;;;11.83;9.20;;;7.00;99.90;;;6.35;100.00;95322.22;5062998;28;21275;-76
2024/02/10 04:38:12;;;;;;;15.93;10.60;;;6.90;99.90;;;6.22;100.00;95323.44;5064425;28;20452;-75
2024/02/10 04:40:40;;;;;;;14.33;10.67;;;6.80;99.90;;;5.93;100.00;95245.94;5067257;28;20456;-75
2024/02/10 04:43:09;;;;;;;21.30;10.53;;;6.90;99.90;;;6.18;100.00;95315.09;5041054;28;20960;-76
2024/02/10 04:45:37;;;;;;;14.23;10.90;;;6.80;99.90;;;6.06;100.00;95314.44;5065526;28;20487;-74
2024/02/10 04:48:07;;;;;;;18.20;10.80;;;6.70;99.90;;;6.12;100.00;95315.28;5066859;28;20488;-71
2024/02/10 04:50:34;;;;;;;12.67;10.03;;;6.70;99.90;;;6.20;100.00;95318.31;5070715;28;20480;-73
2024/02/10 04:53:05;;;;;;;11.37;8.80;;;6.70;99.90;;;6.17;100.00;95316.16;5063871;28;20461;-69
2024/02/10 04:55:32;;;;;;;11.17;8.67;;;6.60;99.90;;;6.17;100.00;95316.16;5070576;28;20498;-74
2024/02/10 04:58:02;;;;;;;12.43;9.30;;;6.60;99.90;;;5.99;100.00;95286.97;5070629;28;20437;-73
2024/02/10 05:00:32;;;;;;;14.20;10.27;;;6.70;99.90;;;5.98;100.00;95306.78;5070467;28;20453;-72
2024/02/10 05:03:02;;;;;;;14.53;11.10;;;6.60;99.90;;;6.03;100.00;95328.34;5070757;28;20449;-73
2024/02/10 05:05:30;;;;;;;13.87;10.17;;;6.50;99.90;;;5.98;100.00;95317.53;5069498;28;20473;-73
2024/02/10 05:07:58;;;;;;;18.40;11.10;;;6.50;99.90;;;5.45;100.00;95251.06;5066074;28;20515;-72
2024/02/10 05:10:26;;;;;;;11.97;10.50;;;6.40;99.90;;;6.00;100.00;95315.41;5067693;28;20517;-76
2024/02/10 05:12:55;;;;;;;13.63;9.80;;;6.40;99.90;;;6.12;100.00;95308.03;5065829;28;20456;-76
2024/02/10 05:15:24;;;;;;;11.87;9.63;;;6.50;99.90;;;6.18;100.00;95308.91;5041121;28;20476;-76
2024/02/10 05:17:54;;;;;;;14.57;10.50;;;6.60;99.90;;;6.22;100.00;95312.72;5065111;28;20513;-76
2024/02/10 05:20:27;;;;;;;14.37;9.37;;;6.60;99.90;;;6.18;100.00;95311.59;5068948;28;20452;-76
2024/02/10 05:22:57;;;;;;;15.00;10.13;;;6.70;99.90;;;6.20;100.00;95315.63;5064242;28;20459;-76
2024/02/10 05:25:27;;;;;;;15.30;11.40;;;6.70;99.90;;;6.08;100.00;95317.66;5064361;28;20841;-76
2024/02/10 05:28:01;;;;;;;15.73;9.53;;;6.60;99.90;;;5.86;100.00;95337.25;5062539;28;20452;-75
2024/02/10 05:30:29;;;;;;;15.63;9.73;;;6.40;99.90;;;5.72;100.00;95325.31;5067193;28;20481;-77
2024/02/10 05:33:01;;;;;;;19.00;10.87;;;6.30;99.90;;;5.55;100.00;95320.81;5065852;28;20441;-74
2024/02/10 05:35:29;;;;;;;15.70;9.10;;;6.20;99.90;;;5.57;100.00;95316.03;5063735;28;20531;-77
2024/02/10 05:37:58;;;;;;;12.00;9.13;;;6.10;99.90;;;5.70;100.00;95316.72;5048775;28;20447;-77
2024/02/10 05:40:27;;;;;;;14.97;9.80;;;6.20;99.90;;;5.68;100.00;95307.03;5049247;28;20452;-77
2024/02/10 05:42:58;;;;;;;15.50;9.70;;;6.20;99.90;;;5.64;100.00;95307.78;5050938;28;20456;-73
2024/02/10 05:45:26;;;;;;;11.60;9.20;;;6.20;99.90;;;5.63;100.00;95308.84;5048873;28;20983;-77
2024/02/10 05:47:53;;;;;;;10.67;9.23;;;6.10;99.90;;;5.73;100.00;95308.16;5058488;28;20453;-77
2024/02/10 05:50:24;;;;;;;14.23;10.50;;;6.20;99.90;;;5.86;100.00;95307.78;5064626;28;20467;-75
2024/02/10 05:52:53;;;;;;;14.47;10.20;;;6.30;99.90;;;5.76;100.00;95297.75;5066537;28;20448;-72
2024/02/10 05:55:25;;;;;;;16.43;10.07;;;6.30;99.90;;;5.90;100.00;95316.91;5063597;28;21435;-75
2024/02/10 05:57:55;;;;;;;15.43;9.63;;;6.40;99.90;;;5.89;100.00;95317.97;5056524;28;20543;-73
2024/02/10 06:00:23;;;;;;;20.03;11.37;;;6.40;99.90;;;5.98;100.00;95328.25;5070551;28;20454;-76
2024/02/10 06:02:50;;;;;;;19.73;10.77;;;6.40;99.90;;;6.15;100.00;95315.59;5065024;28;20453;-74
2024/02/10 06:05:18;;;;;;;18.03;12.83;;;6.60;99.90;;;6.35;100.00;95314.16;5046757;28;20468;-76
2024/02/10 06:07:48;;;;;;;17.60;12.67;;;6.80;99.90;;;6.35;100.00;95316.84;5064083;28;20463;-74
2024/02/10 06:10:16;;;;;;;21.53;13.17;;;6.90;99.90;;;6.42;100.00;95312.06;5064213;28;20448;-75
2024/02/10 06:12:48;;;;;;;17.47;12.83;;;7.00;99.90;;;6.41;100.00;95309.66;5064294;28;20465;-74
2024/02/10 06:15:17;;;;;;;21.10;13.77;;;6.90;99.90;;;6.47;100.00;95314.00;5056255;28;20500;-73
2024/02/10 06:17:49;;;;;;;21.83;13.40;;;7.00;99.90;;;6.57;100.00;95310.56;5061244;28;20451;-73
2024/02/10 06:20:22;;;;;;;24.10;14.03;;;7.10;99.90;;;6.51;100.00;95320.44;5064328;28;20460;-77
2024/02/10 06:22:53;;;;;;;23.97;13.63;;;7.10;99.90;;;6.54;100.00;95324.50;5064216;28;20460;-76
2024/02/10 06:25:22;;;;;;;24.50;12.60;;;7.20;99.90;;;6.52;100.00;95328.25;5061008;28;20473;-74
2024/02/10 06:27:52;;;;;;;20.77;12.33;;;7.20;99.90;;;6.64;100.00;95324.59;5049213;28;20448;-75
2024/02/10 06:30:21;;;;;;;21.60;12.70;;;7.20;99.90;;;6.66;100.00;95333.19;5066674;28;21028;-75
2024/02/10 06:32:49;;;;;;;23.40;14.03;;;7.20;99.90;;;6.60;100.00;95318.13;5050968;28;20831;-77
2024/02/10 06:35:19;;;;;;;22.07;13.47;;;7.30;99.90;;;6.53;100.00;95318.34;5046391;28;20525;-76
2024/02/10 06:37:49;;;;;;;17.97;13.70;;;7.30;99.90;;;6.62;100.00;95335.56;5039379;28;20457;-77
2024/02/10 06:40:19;;;;;;;18.90;12.77;;;7.30;99.90;;;6.68;100.00;95331.06;5057478;28;20453;-75
2024/02/10 06:42:51;;;;;;;21.17;13.10;;;7.30;99.90;;;6.66;100.00;95335.88;5049794;28;20445;-74
2024/02/10 06:45:21;;;;;;;18.37;12.10;;;7.30;99.90;;;6.65;100.00;95331.59;5049931;28;20995;-75
2024/02/10 06:47:49;;;;;;;20.13;12.37;;;7.30;99.90;;;6.70;100.00;95338.88;5065936;28;20954;-75
2024/02/10 06:50:24;;;;;;;18.83;12.77;;;7.30;99.90;;;6.78;100.00;95336.53;5050281;28;20494;-75
2024/02/10 06:52:51;;;;;;;29.60;17.33;;;7.40;99.90;;;6.80;100.00;95333.56;5062287;28;20576;-77
2024/02/10 06:55:20;;;;;;;22.17;12.50;;;7.40;99.90;;;6.75;100.00;95347.78;5067710;28;20445;-76
2024/02/10 06:57:52;;;;;;;17.10;12.70;;;7.40;99.90;;;6.74;100.00;95335.38;5044178;28;20490;-75
2024/02/10 07:00:19;;;;;;;18.47;12.83;;;7.40;99.90;;;6.83;100.00;95329.56;5067207;28;20460;-76
2024/02/10 07:02:47;;;;;;;18.60;11.97;;;7.40;99.90;;;6.78;100.00;95317.72;5060909;28;20469;-79
2024/02/10 07:05:16;;;;;;;17.53;12.83;;;7.40;99.90;;;6.79;100.00;95338.13;5067882;28;20467;-81
2024/02/10 07:07:46;;;;;;;21.20;13.00;;;7.50;99.90;;;6.85;100.00;95338.16;5070912;28;20484;-85
2024/02/10 07:10:14;;;;;;;20.17;13.27;;;7.40;99.90;;;6.77;100.00;95334.06;5073723;28;20467;-82
2024/02/10 07:12:44;;;;;;;17.07;12.63;;;7.50;99.90;;;6.88;100.00;95343.00;5056049;28;20448;-81
2024/02/10 07:15:14;;;;;;;22.90;12.60;;;7.50;99.90;;;6.78;100.00;95333.00;5048872;28;20475;-82
2024/02/10 07:17:44;;;;;;;18.53;11.70;;;7.50;99.90;;;6.99;100.00;95333.97;5043766;28;20544;-84
2024/02/10 07:20:15;;;;;;;16.53;12.10;;;7.50;99.90;;;6.97;100.00;95322.69;5029500;28;20449;-81
2024/02/10 07:22:42;;;;;;;19.10;11.87;;;7.60;99.90;;;6.14;100.00;95193.34;5065869;28;20886;-82
2024/02/10 07:25:11;;;;;;;20.93;12.20;;;7.60;99.90;;;7.08;100.00;95328.91;5057502;28;20940;-83
2024/02/10 07:27:40;;;;;;;15.90;10.73;;;7.70;99.90;;;7.08;100.00;95332.44;5053902;28;20485;-80
2024/02/10 07:30:10;;;;;;;17.43;11.40;;;7.70;99.90;;;7.12;100.00;95329.22;5064033;28;20505;-78
2024/02/10 07:32:37;;;;;;;16.83;12.07;;;7.70;99.90;;;7.18;100.00;95337.03;5067653;28;20448;-83
2024/02/10 07:35:05;;;;;;;17.77;13.00;;;7.70;99.90;;;7.19;100.00;95340.53;5053955;28;20457;-82
2024/02/10 07:37:33;;;;;;;16.53;11.57;;;7.70;99.90;;;7.18;100.00;95336.22;5062819;28;20475;-79
2024/02/10 07:40:00;;;;;;;15.27;11.13;;;7.70;99.90;;;7.18;100.00;95330.84;5070593;28;20456;-78
2024/02/10 07:42:28;;;;;;;18.40;11.93;;;7.70;99.90;;;7.12;100.00;95323.84;5062942;28;20453;-81
2024/02/10 07:44:55;;;;;;;16.83;12.00;;;7.70;99.90;;;6.74;100.00;95271.00;5048953;28;20445;-83
2024/02/10 07:47:24;;;;;;;12.70;9.90;;;7.70;99.90;;;7.16;100.00;95335.69;5066206;28;20477;-84
2024/02/10 07:49:52;;;;;;;16.80;11.90;;;7.70;99.90;;;7.09;100.00;95336.72;5068797;28;20464;-83
2024/02/10 07:52:19;;;;;;;14.40;10.90;;;7.70;99.90;;;7.14;100.00;95327.91;5050728;28;21044;-83
2024/02/10 07:54:48;;;;;;;15.10;11.57;;;7.70;99.90;;;7.24;100.00;95335.19;5049035;28;21158;-85
2024/02/10 07:57:19;;;;;;;17.40;11.00;;;7.70;99.90;;;7.25;100.00;95336.81;5063500;28;23174;-83
2024/02/10 07:59:48;;;;;;;12.93;10.77;;;7.80;99.90;;;7.36;100.00;95341.19;5065445;28;20457;-84
2024/02/10 08:02:20;;;;;;;15.73;11.60;;;7.90;99.90;;;7.34;100.00;95337.94;5061840;28;20458;-81
2024/02/10 08:04:51;;;;;;;15.47;11.10;;;7.90;99.90;;;7.36;100.00;95337.69;5063112;28;20453;-82
2024/02/10 08:07:19;;;;;;;12.37;9.97;;;8.00;99.90;;;7.39;100.00;95349.78;5061589;28;20509;-83
2024/02/10 08:09:48;;;;;;;15.63;11.80;;;8.00;99.90;;;7.55;100.00;95345.28;5066005;28;20461;-85
2024/02/10 08:12:17;;;;;;;13.30;11.40;;;8.10;99.90;;;7.64;100.00;95333.78;5059814;28;20508;-81
2024/02/10 08:14:47;;;;;;;14.20;11.83;;;8.20;99.90;;;7.69;100.00;95340.25;5057129;28;20464;-80
2024/02/10 08:17:15;;;;;;;13.77;10.33;;;8.30;99.90;;;7.65;100.00;95343.44;5044163;28;20450;-80
2024/02/10 08:19:42;;;;;;;20.23;10.77;;;8.30;99.90;;;7.72;100.00;95342.41;5044847;28;20957;-79
2024/02/10 08:22:11;;;;;;;12.73;10.30;;;8.40;99.90;;;7.76;100.00;95343.50;5044130;28;20981;-81
2024/02/10 08:24:39;;;;;;;13.67;10.53;;;8.40;99.90;;;7.78;100.00;95319.84;5062096;28;20488;-81
2024/02/10 08:27:08;;;;;;;11.77;9.40;;;8.40;99.90;;;8.04;100.00;95339.56;5026571;28;20476;-72
2024/02/10 08:29:36;;;;;;;15.53;11.33;;;8.60;99.90;;;7.97;100.00;95332.84;5067559;28;20467;-79
2024/02/10 08:32:05;;;;;;;14.50;10.17;;;8.70;99.90;;;8.06;100.00;95321.28;5070816;28;20465;-82
2024/02/10 08:34:38;;;;;;;11.83;9.47;;;8.70;99.90;;;8.14;100.00;95333.41;5066169;28;20537;-80
2024/02/10 08:37:09;;;;;;;13.40;10.07;;;8.70;99.90;;;7.96;100.00;95298.94;5065255;28;20460;-80
2024/02/10 08:39:38;;;;;;;11.53;10.00;;;8.70;99.90;;;8.08;100.00;95331.75;5058777;28;20897;-83
2024/02/10 08:42:07;;;;;;;15.33;11.60;;;8.70;99.90;;;8.21;100.00;95338.53;5060292;28;20464;-81
2024/02/10 08:44:34;;;;;;;11.40;9.23;;;8.80;99.90;;;8.33;100.00;95335.59;5061231;28;20444;-79
2024/02/10 08:47:03;;;;;;;15.03;9.67;;;8.90;99.90;;;8.61;100.00;95333.50;5059499;28;20910;-76
2024/02/10 08:49:31;;;;;;;11.83;9.83;;;9.00;99.90;;;8.42;100.00;95285.56;5068037;28;20532;-79
2024/02/10 08:51:58;;;;;;;9.87;8.87;;;9.20;99.90;;;8.92;100.00;95341.56;5063677;28;20460;-80
2024/02/10 08:54:29;;;;;;;9.93;8.73;;;9.30;99.90;;;9.00;100.00;95335.63;5052891;28;20449;-77
2024/02/10 08:57:00;;;;;;;10.10;8.77;;;9.40;99.90;;;8.87;100.00;95328.09;5056547;28;20437;-75
2024/02/10 08:59:31;;;;;;;10.57;9.10;;;9.50;99.90;;;8.95;100.00;95330.25;5055882;28;20464;-75
2024/02/10 09:02:01;;;;;;;10.13;9.03;;;9.50;99.90;;;8.84;100.00;95328.63;5060414;28;20471;-75
2024/02/10 09:04:30;;;;;;;10.27;8.50;;;9.40;99.90;;;8.84;100.00;95323.25;5055157;28;20472;-74
2024/02/10 09:06:57;;;;;;;9.63;8.63;;;9.50;99.90;;;8.89;100.00;95331.34;5037684;28;21001;-74
2024/02/10 09:09:25;;;;;;;9.97;8.97;;;9.50;99.90;;;8.95;100.00;95329.44;5058514;28;20953;-76
2024/02/10 09:11:52;;;;;;;11.00;9.43;;;9.60;99.90;;;9.12;100.00;95323.75;5058655;28;21305;-73
2024/02/10 09:14:21;;;;;;;9.80;8.43;;;9.70;99.90;;;9.41;100.00;95328.56;5059206;28;20457;-75
2024/02/10 09:16:49;;;;;;;10.93;8.40;;;9.90;99.20;;;9.66;100.00;95322.25;5058299;28;21005;-75
2024/02/10 09:19:18;;;;;;;9.77;8.77;;;10.10;98.20;;;9.61;100.00;95325.00;5061014;28;20956;-75
2024/02/10 09:21:45;;;;;;;9.93;7.80;;;10.20;96.10;;;9.49;100.00;95328.00;5045981;28;20477;-75
2024/02/10 09:24:13;;;;;;;8.90;7.70;;;10.20;95.90;;;9.47;100.00;95324.75;5054132;28;20793;-74
2024/02/10 09:26:40;;;;;;;8.23;7.43;;;10.20;96.00;;;9.64;100.00;95322.56;5056675;28;20492;-76
2024/02/10 09:29:08;;;;;;;10.40;8.50;;;10.20;96.10;;;9.64;100.00;95319.03;5059001;28;20441;-74
2024/02/10 09:31:36;;;;;;;9.53;8.53;;;10.30;96.10;;;9.89;100.00;95315.44;5059456;28;20468;-76
2024/02/10 09:34:04;;;;;;;8.77;7.50;;;10.40;96.10;;;10.07;97.59;95316.69;5059474;28;20441;-78
2024/02/10 09:36:32;;;;;;;11.23;9.00;;;10.60;95.10;;;10.15;97.98;95311.78;5043712;28;20556;-73
2024/02/10 09:39:03;;;;;;;8.33;7.53;;;10.70;94.60;;;10.11;96.82;95310.72;5054645;28;20538;-78
2024/02/10 09:41:30;;;;;;;9.00;7.73;;;10.70;93.70;;;10.11;95.98;95310.72;5045066;28;20460;-85
2024/02/10 09:43:57;;;;;;;9.70;7.60;;;10.80;93.50;;;9.86;97.16;95256.66;5041729;28;20925;-75
2024/02/10 09:46:24;;;;;;;10.17;8.10;;;10.80;93.70;;;10.15;97.28;95295.59;5044891;28;20984;-83
2024/02/10 09:48:54;;;;;;;10.40;8.80;;;10.80;93.80;;;10.15;98.97;95301.81;5060595;28;20520;-78
2024/02/10 09:51:22;;;;;;;13.23;8.47;;;10.70;94.50;;;10.31;96.40;95304.41;5058104;28;20476;-83
2024/02/10 09:53:49;;;;;;;13.07;7.90;;;10.80;93.90;;;10.25;97.38;95300.16;5059496;28;20466;-83
2024/02/10 09:56:16;;;;;;;8.93;7.20;;;10.90;94.00;;;10.54;96.77;95308.31;5055326;28;21152;-80
2024/02/10 09:58:46;;;;;;;10.77;8.10;;;11.00;94.10;;;10.40;96.41;95286.53;5053903;28;20445;-79
2024/02/10 10:01:14;;;;;;;8.67;7.57;;;11.10;93.30;;;10.51;95.05;95299.97;5061448;28;20492;-79
2024/02/10 10:03:42;;;;;;;9.67;6.80;;;11.20;92.80;;;10.83;93.95;95294.06;5062772;28;20541;-83
2024/02/10 10:06:11;;;;;;;9.00;8.10;;;11.30;93.00;;;10.85;94.32;95293.78;5065651;28;20805;-76
2024/02/10 10:08:39;;;;;;;11.87;6.50;;;11.50;93.00;;;11.28;90.20;95298.50;5068202;28;20455;-79
2024/02/10 10:11:07;;;;;;;7.50;6.80;;;11.80;91.80;;;11.21;91.24;95298.81;5070142;28;20523;-82
2024/02/10 10:13:35;;;;;;;7.80;6.50;;;11.70;91.50;;;11.32;89.51;95313.84;5065772;28;20454;-81
2024/02/10 10:16:05;;;;;;;8.03;6.83;;;11.90;91.00;;;11.69;89.68;95306.16;5072250;28;20487;-84
2024/02/10 10:18:34;;;;;;;8.03;7.23;;;12.10;91.60;;;11.80;86.63;95293.31;5069597;28;20450;-81
2024/02/10 10:21:04;;;;;;;8.47;6.87;;;12.30;90.70;;;11.38;89.62;95302.97;5050462;28;20454;-84
2024/02/10 10:23:34;;;;;;;8.43;7.30;;;12.10;90.80;;;11.28;89.99;95287.69;5048728;28;20552;-84